sensor_id;sensor_type;location;lat;lon;timestamp;temperature;humidity
9901;DHT22;4989;48.772;9.154;2023-07-08T00:00:57;27.00;49.60
9901;DHT22;4989;48.772;9.154;2023-07-08T00:06:00;27.00;47.60
9901;DHT22;4989;48.772;9.154;2023-07-08T00:11:09;26.80;46.80
9901;DHT22;4989;48.772;9.154;2023-07-08T00:16:15;26.90;48.70
9901;DHT22;4989;48.772;9.154;2023-07-08T00:21:20;26.50;49.10
9901;DHT22;4989;48.772;9.154;2023-07-08T00:26:28;26.60;43.70
9901;DHT22;4989;48.772;9.154;2023-07-08T00:31:34;26.30;44.00
9901;DHT22;4989;48.772;9.154;2023-07-08T00:36:36;26.40;49.20
9901;DHT22;4989;48.772;9.154;2023-07-08T00:41:42;26.50;43.70
9901;DHT22;4989;48.772;9.154;2023-07-08T00:52:20;26.20;44.70
9901;DHT22;4989;48.772;9.154;2023-07-08T00:57:26;26.40;50.00
9901;DHT22;4989;48.772;9.154;2023-07-08T01:02:36;26.50;44.20
9901;DHT22;4989;48.772;9.154;2023-07-08T01:08:01;26.50;50.20
9901;DHT22;4989;48.772;9.154;2023-07-08T01:13:08;26.60;50.20
9901;DHT22;4989;48.772;9.154;2023-07-08T01:18:15;26.60;50.40
9901;DHT22;4989;48.772;9.154;2023-07-08T01:23:23;26.40;49.00
9901;DHT22;4989;48.772;9.154;2023-07-08T01:28:27;26.40;46.30
9901;DHT22;4989;48.772;9.154;2023-07-08T01:33:31;26.40;49.50
9901;DHT22;4989;48.772;9.154;2023-07-08T01:38:36;26.40;50.20
9901;DHT22;4989;48.772;9.154;2023-07-08T01:43:40;26.30;50.00
9901;DHT22;4989;48.772;9.154;2023-07-08T01:48:47;26.40;50.90
9901;DHT22;4989;48.772;9.154;2023-07-08T01:53:55;26.40;50.70
9901;DHT22;4989;48.772;9.154;2023-07-08T01:58:57;26.40;47.60
9901;DHT22;4989;48.772;9.154;2023-07-08T02:04:00;26.30;48.40
9901;DHT22;4989;48.772;9.154;2023-07-08T02:09:02;25.90;45.90
9901;DHT22;4989;48.772;9.154;2023-07-08T02:14:04;25.80;47.10
9901;DHT22;4989;48.772;9.154;2023-07-08T02:19:12;25.20;47.00
9901;DHT22;4989;48.772;9.154;2023-07-08T02:24:14;25.20;46.80
9901;DHT22;4989;48.772;9.154;2023-07-08T02:29:18;25.60;51.20
9901;DHT22;4989;48.772;9.154;2023-07-08T02:34:21;25.70;50.20
9901;DHT22;4989;48.772;9.154;2023-07-08T02:39:23;25.70;51.20
9901;DHT22;4989;48.772;9.154;2023-07-08T02:44:25;25.60;46.40
9901;DHT22;4989;48.772;9.154;2023-07-08T02:49:30;25.60;47.80
9901;DHT22;4989;48.772;9.154;2023-07-08T02:54:32;25.80;50.90
9901;DHT22;4989;48.772;9.154;2023-07-08T02:59:35;25.90;46.00
9901;DHT22;4989;48.772;9.154;2023-07-08T03:04:37;25.10;46.50
9901;DHT22;4989;48.772;9.154;2023-07-08T06:32:54;24.80;45.90
9901;DHT22;4989;48.772;9.154;2023-07-08T06:37:58;26.40;51.50
9901;DHT22;4989;48.772;9.154;2023-07-08T06:43:01;26.60;48.00
9901;DHT22;4989;48.772;9.154;2023-07-08T06:48:30;26.70;50.10
9901;DHT22;4989;48.772;9.154;2023-07-08T06:53:33;26.20;49.80
9901;DHT22;4989;48.772;9.154;2023-07-08T06:58:35;26.10;50.40
9901;DHT22;4989;48.772;9.154;2023-07-08T07:03:38;26.00;51.50
9901;DHT22;4989;48.772;9.154;2023-07-08T07:08:40;25.90;51.90
9901;DHT22;4989;48.772;9.154;2023-07-08T07:13:42;26.30;51.90
9901;DHT22;4989;48.772;9.154;2023-07-08T07:18:45;26.30;51.80
9901;DHT22;4989;48.772;9.154;2023-07-08T07:23:47;26.20;52.10
9901;DHT22;4989;48.772;9.154;2023-07-08T07:28:49;26.00;52.80
9901;DHT22;4989;48.772;9.154;2023-07-08T07:33:51;25.90;53.20
9901;DHT22;4989;48.772;9.154;2023-07-08T07:38:54;25.90;53.70
9901;DHT22;4989;48.772;9.154;2023-07-08T07:43:56;26.10;53.40
9901;DHT22;4989;48.772;9.154;2023-07-08T07:48:59;26.50;53.30
9901;DHT22;4989;48.772;9.154;2023-07-08T07:54:01;26.50;53.20
9901;DHT22;4989;48.772;9.154;2023-07-08T07:59:04;27.10;53.40
9901;DHT22;4989;48.772;9.154;2023-07-08T08:04:06;27.80;51.70
9901;DHT22;4989;48.772;9.154;2023-07-08T08:09:08;28.20;51.20
9901;DHT22;4989;48.772;9.154;2023-07-08T08:14:11;28.10;50.50
9901;DHT22;4989;48.772;9.154;2023-07-08T08:19:13;28.20;51.60
9901;DHT22;4989;48.772;9.154;2023-07-08T08:24:16;28.50;49.80
9901;DHT22;4989;48.772;9.154;2023-07-08T08:29:18;28.10;50.70
9901;DHT22;4989;48.772;9.154;2023-07-08T08:34:20;28.10;51.00
9901;DHT22;4989;48.772;9.154;2023-07-08T08:39:23;28.40;50.70
9901;DHT22;4989;48.772;9.154;2023-07-08T08:44:32;28.30;50.70
9901;DHT22;4989;48.772;9.154;2023-07-08T08:49:52;28.50;48.60
9901;DHT22;4989;48.772;9.154;2023-07-08T08:55:11;28.60;48.40
9901;DHT22;4989;48.772;9.154;2023-07-08T09:00:23;29.40;48.40
9901;DHT22;4989;48.772;9.154;2023-07-08T09:05:29;30.00;47.40
9901;DHT22;4989;48.772;9.154;2023-07-08T09:10:42;30.40;45.60
9901;DHT22;4989;48.772;9.154;2023-07-08T09:15:59;29.70;47.10
9901;DHT22;4989;48.772;9.154;2023-07-08T09:21:18;30.10;46.60
9901;DHT22;4989;48.772;9.154;2023-07-08T09:26:24;30.40;46.10
9901;DHT22;4989;48.772;9.154;2023-07-08T09:31:31;30.00;44.70
9901;DHT22;4989;48.772;9.154;2023-07-08T09:36:42;30.60;46.90
9901;DHT22;4989;48.772;9.154;2023-07-08T09:41:49;31.10;45.40
9901;DHT22;4989;48.772;9.154;2023-07-08T09:46:52;31.10;45.40
9901;DHT22;4989;48.772;9.154;2023-07-08T09:51:55;32.00;44.60
9901;DHT22;4989;48.772;9.154;2023-07-08T09:57:02;31.70;44.30
9901;DHT22;4989;48.772;9.154;2023-07-08T10:07:33;31.70;44.40
9901;DHT22;4989;48.772;9.154;2023-07-08T10:12:38;30.80;44.70
9901;DHT22;4989;48.772;9.154;2023-07-08T10:17:42;30.90;45.10
9901;DHT22;4989;48.772;9.154;2023-07-08T10:23:14;30.10;45.80
9901;DHT22;4989;48.772;9.154;2023-07-08T10:34:02;31.10;45.90
9901;DHT22;4989;48.772;9.154;2023-07-08T10:44:39;31.30;46.60
9901;DHT22;4989;48.772;9.154;2023-07-08T11:01:03;32.30;44.60
9901;DHT22;4989;48.772;9.154;2023-07-08T11:06:51;32.80;44.20
9901;DHT22;4989;48.772;9.154;2023-07-08T11:11:58;33.40;43.80
9901;DHT22;4989;48.772;9.154;2023-07-08T11:17:32;34.20;43.00
9901;DHT22;4989;48.772;9.154;2023-07-08T11:23:02;33.60;42.20
9901;DHT22;4989;48.772;9.154;2023-07-08T11:28:15;31.90;44.80
9901;DHT22;4989;48.772;9.154;2023-07-08T11:33:24;32.30;44.70
9901;DHT22;4989;48.772;9.154;2023-07-08T11:38:27;33.30;44.10
9901;DHT22;4989;48.772;9.154;2023-07-08T11:43:56;31.90;43.80
9901;DHT22;4989;48.772;9.154;2023-07-08T11:49:05;32.80;44.10
9901;DHT22;4989;48.772;9.154;2023-07-08T11:54:29;33.80;43.60
9901;DHT22;4989;48.772;9.154;2023-07-08T11:59:37;35.30;42.30
9901;DHT22;4989;48.772;9.154;2023-07-08T12:10:11;36.10;41.30
9901;DHT22;4989;48.772;9.154;2023-07-08T12:15:32;35.80;41.50
9901;DHT22;4989;48.772;9.154;2023-07-08T12:20:39;35.40;40.40
9901;DHT22;4989;48.772;9.154;2023-07-08T12:25:43;35.10;40.80
9901;DHT22;4989;48.772;9.154;2023-07-08T12:30:46;35.30;42.20
9901;DHT22;4989;48.772;9.154;2023-07-08T12:35:50;35.20;42.30
9901;DHT22;4989;48.772;9.154;2023-07-08T12:40:53;34.80;42.60
9901;DHT22;4989;48.772;9.154;2023-07-08T12:45:55;35.20;41.80
9901;DHT22;4989;48.772;9.154;2023-07-08T12:50:57;36.10;40.10
9901;DHT22;4989;48.772;9.154;2023-07-08T12:56:01;36.40;40.50
9901;DHT22;4989;48.772;9.154;2023-07-08T13:01:06;36.70;40.80
9901;DHT22;4989;48.772;9.154;2023-07-08T13:06:12;37.00;39.40
9901;DHT22;4989;48.772;9.154;2023-07-08T13:11:20;37.50;40.40
9901;DHT22;4989;48.772;9.154;2023-07-08T13:16:28;37.30;38.90
9901;DHT22;4989;48.772;9.154;2023-07-08T13:21:33;37.20;37.80
9901;DHT22;4989;48.772;9.154;2023-07-08T13:26:36;37.20;38.80
9901;DHT22;4989;48.772;9.154;2023-07-08T13:31:39;37.60;38.30
9901;DHT22;4989;48.772;9.154;2023-07-08T13:36:44;37.90;38.20
9901;DHT22;4989;48.772;9.154;2023-07-08T13:41:50;37.30;38.20
9901;DHT22;4989;48.772;9.154;2023-07-08T13:46:56;37.40;37.70
9901;DHT22;4989;48.772;9.154;2023-07-08T13:52:16;36.80;38.60
9901;DHT22;4989;48.772;9.154;2023-07-08T13:57:24;37.30;38.60
9901;DHT22;4989;48.772;9.154;2023-07-08T14:02:43;37.90;36.70
9901;DHT22;4989;48.772;9.154;2023-07-08T14:07:47;37.00;39.70
9901;DHT22;4989;48.772;9.154;2023-07-08T14:12:50;37.20;37.70
9901;DHT22;4989;48.772;9.154;2023-07-08T14:17:52;37.10;38.50
9901;DHT22;4989;48.772;9.154;2023-07-08T14:22:56;37.30;38.90
9901;DHT22;4989;48.772;9.154;2023-07-08T14:27:58;36.90;38.00
9901;DHT22;4989;48.772;9.154;2023-07-08T14:33:01;36.30;39.50
9901;DHT22;4989;48.772;9.154;2023-07-08T14:38:14;36.80;39.40
9901;DHT22;4989;48.772;9.154;2023-07-08T14:43:31;37.10;38.60
9901;DHT22;4989;48.772;9.154;2023-07-08T14:48:35;36.50;38.40
9901;DHT22;4989;48.772;9.154;2023-07-08T14:53:37;35.60;39.20
9901;DHT22;4989;48.772;9.154;2023-07-08T14:58:41;35.20;39.20
9901;DHT22;4989;48.772;9.154;2023-07-08T15:03:47;35.70;39.30
9901;DHT22;4989;48.772;9.154;2023-07-08T15:08:49;36.30;38.90
9901;DHT22;4989;48.772;9.154;2023-07-08T15:13:51;36.30;38.00
9901;DHT22;4989;48.772;9.154;2023-07-08T15:18:54;35.60;39.80
9901;DHT22;4989;48.772;9.154;2023-07-08T15:23:56;35.60;39.50
9901;DHT22;4989;48.772;9.154;2023-07-08T15:28:58;35.70;39.00
9901;DHT22;4989;48.772;9.154;2023-07-08T15:34:01;35.60;39.40
9901;DHT22;4989;48.772;9.154;2023-07-08T15:39:03;34.80;39.70
9901;DHT22;4989;48.772;9.154;2023-07-08T15:44:09;34.70;42.00
9901;DHT22;4989;48.772;9.154;2023-07-08T15:54:24;34.00;43.70
9901;DHT22;4989;48.772;9.154;2023-07-08T15:59:28;33.60;43.40
9901;DHT22;4989;48.772;9.154;2023-07-08T16:04:33;33.60;41.00
9901;DHT22;4989;48.772;9.154;2023-07-08T16:09:37;33.90;42.00
9901;DHT22;4989;48.772;9.154;2023-07-08T16:14:39;34.30;42.70
9901;DHT22;4989;48.772;9.154;2023-07-08T16:19:41;33.80;43.60
9901;DHT22;4989;48.772;9.154;2023-07-08T16:24:43;33.60;44.00
9901;DHT22;4989;48.772;9.154;2023-07-08T16:29:46;33.60;41.50
9901;DHT22;4989;48.772;9.154;2023-07-08T16:34:48;33.60;43.90
9901;DHT22;4989;48.772;9.154;2023-07-08T16:39:50;33.30;44.50
9901;DHT22;4989;48.772;9.154;2023-07-08T16:44:57;32.60;45.40
9901;DHT22;4989;48.772;9.154;2023-07-08T16:50:00;32.70;45.20
9901;DHT22;4989;48.772;9.154;2023-07-08T16:55:08;32.50;45.70
9901;DHT22;4989;48.772;9.154;2023-07-08T17:00:20;32.30;45.60
9901;DHT22;4989;48.772;9.154;2023-07-08T17:05:24;32.70;43.20
9901;DHT22;4989;48.772;9.154;2023-07-08T17:10:31;33.20;42.60
9901;DHT22;4989;48.772;9.154;2023-07-08T17:15:34;33.20;42.40
9901;DHT22;4989;48.772;9.154;2023-07-08T17:20:38;32.80;44.70
9901;DHT22;4989;48.772;9.154;2023-07-08T17:25:40;32.60;45.30
9901;DHT22;4989;48.772;9.154;2023-07-08T17:30:48;32.40;45.50
9901;DHT22;4989;48.772;9.154;2023-07-08T17:35:55;31.70;46.20
9901;DHT22;4989;48.772;9.154;2023-07-08T17:40:57;31.70;45.50
9901;DHT22;4989;48.772;9.154;2023-07-08T17:46:00;31.90;44.60
9901;DHT22;4989;48.772;9.154;2023-07-08T17:51:05;32.00;44.10
9901;DHT22;4989;48.772;9.154;2023-07-08T17:56:36;32.10;45.60
9901;DHT22;4989;48.772;9.154;2023-07-08T18:01:41;32.30;45.30
9901;DHT22;4989;48.772;9.154;2023-07-08T18:06:43;32.10;45.80
9901;DHT22;4989;48.772;9.154;2023-07-08T18:11:47;31.70;46.30
9901;DHT22;4989;48.772;9.154;2023-07-08T18:16:50;31.80;46.30
9901;DHT22;4989;48.772;9.154;2023-07-08T18:21:54;31.60;46.70
9901;DHT22;4989;48.772;9.154;2023-07-08T18:26:57;31.50;45.00
9901;DHT22;4989;48.772;9.154;2023-07-08T18:31:59;31.60;45.60
9901;DHT22;4989;48.772;9.154;2023-07-08T18:37:01;31.60;45.40
9901;DHT22;4989;48.772;9.154;2023-07-08T18:42:07;31.60;46.70
9901;DHT22;4989;48.772;9.154;2023-07-08T18:47:10;31.60;46.40
9901;DHT22;4989;48.772;9.154;2023-07-08T18:52:14;31.50;46.40
9901;DHT22;4989;48.772;9.154;2023-07-08T18:57:19;31.70;46.50
9901;DHT22;4989;48.772;9.154;2023-07-08T19:02:34;31.50;46.30
9901;DHT22;4989;48.772;9.154;2023-07-08T19:07:38;31.50;46.80
9901;DHT22;4989;48.772;9.154;2023-07-08T19:12:41;31.60;45.20
9901;DHT22;4989;48.772;9.154;2023-07-08T19:17:44;31.60;46.40
9901;DHT22;4989;48.772;9.154;2023-07-08T19:22:47;31.50;46.70
9901;DHT22;4989;48.772;9.154;2023-07-08T19:27:52;31.40;46.10
9901;DHT22;4989;48.772;9.154;2023-07-08T19:32:57;31.20;46.40
9901;DHT22;4989;48.772;9.154;2023-07-08T19:38:02;31.30;46.30
9901;DHT22;4989;48.772;9.154;2023-07-08T19:43:04;31.10;46.40
9901;DHT22;4989;48.772;9.154;2023-07-08T19:48:09;31.10;47.50
9901;DHT22;4989;48.772;9.154;2023-07-08T19:53:13;30.90;47.90
9901;DHT22;4989;48.772;9.154;2023-07-08T19:58:15;30.90;47.90
9901;DHT22;4989;48.772;9.154;2023-07-08T20:03:17;30.70;47.20
9901;DHT22;4989;48.772;9.154;2023-07-08T20:08:29;30.50;47.40
9901;DHT22;4989;48.772;9.154;2023-07-08T20:13:35;30.50;47.50
9901;DHT22;4989;48.772;9.154;2023-07-08T20:18:37;30.50;48.50
9901;DHT22;4989;48.772;9.154;2023-07-08T20:23:39;30.30;48.90
9901;DHT22;4989;48.772;9.154;2023-07-08T20:28:42;30.40;49.40
9901;DHT22;4989;48.772;9.154;2023-07-08T20:33:47;30.30;49.40
9901;DHT22;4989;48.772;9.154;2023-07-08T20:38:50;30.40;49.70
9901;DHT22;4989;48.772;9.154;2023-07-08T20:43:53;30.20;49.60
9901;DHT22;4989;48.772;9.154;2023-07-08T20:48:58;30.20;49.00
9901;DHT22;4989;48.772;9.154;2023-07-08T20:54:07;30.30;49.70
9901;DHT22;4989;48.772;9.154;2023-07-08T20:59:18;30.20;50.10
9901;DHT22;4989;48.772;9.154;2023-07-08T21:04:22;30.10;49.70
9901;DHT22;4989;48.772;9.154;2023-07-08T21:09:24;29.90;50.10
9901;DHT22;4989;48.772;9.154;2023-07-08T21:14:27;29.80;50.50
9901;DHT22;4989;48.772;9.154;2023-07-08T21:19:30;29.70;51.00
9901;DHT22;4989;48.772;9.154;2023-07-08T21:24:32;29.40;52.00
9901;DHT22;4989;48.772;9.154;2023-07-08T21:29:35;29.30;51.70
9901;DHT22;4989;48.772;9.154;2023-07-08T21:34:37;29.20;51.80
9901;DHT22;4989;48.772;9.154;2023-07-08T21:39:39;29.20;51.70
9901;DHT22;4989;48.772;9.154;2023-07-08T21:44:43;29.40;51.70
9901;DHT22;4989;48.772;9.154;2023-07-08T21:49:45;29.40;51.60
9901;DHT22;4989;48.772;9.154;2023-07-08T21:54:47;29.20;51.70
9901;DHT22;4989;48.772;9.154;2023-07-08T21:59:50;28.90;52.40
9901;DHT22;4989;48.772;9.154;2023-07-08T22:04:52;29.20;52.20
9901;DHT22;4989;48.772;9.154;2023-07-08T22:09:54;29.50;51.80
9901;DHT22;4989;48.772;9.154;2023-07-08T22:14:56;29.40;52.60
9901;DHT22;4989;48.772;9.154;2023-07-08T22:19:59;29.20;52.20
9901;DHT22;4989;48.772;9.154;2023-07-08T22:25:01;29.10;52.40
9901;DHT22;4989;48.772;9.154;2023-07-08T22:30:04;29.10;52.90
9901;DHT22;4989;48.772;9.154;2023-07-08T22:35:13;28.90;52.90
9901;DHT22;4989;48.772;9.154;2023-07-08T22:40:28;28.80;53.10
9901;DHT22;4989;48.772;9.154;2023-07-08T22:45:31;28.80;53.40
9901;DHT22;4989;48.772;9.154;2023-07-08T22:50:34;28.70;53.60
9901;DHT22;4989;48.772;9.154;2023-07-08T22:55:37;28.70;53.40
9901;DHT22;4989;48.772;9.154;2023-07-08T23:00:41;28.70;53.60
9901;DHT22;4989;48.772;9.154;2023-07-08T23:05:45;28.70;53.80
9901;DHT22;4989;48.772;9.154;2023-07-08T23:10:51;28.60;53.80
9901;DHT22;4989;48.772;9.154;2023-07-08T23:15:53;28.60;53.80
9901;DHT22;4989;48.772;9.154;2023-07-08T23:20:56;28.50;54.30
9901;DHT22;4989;48.772;9.154;2023-07-08T23:25:58;28.50;54.60
9901;DHT22;4989;48.772;9.154;2023-07-08T23:31:01;28.40;54.70
9901;DHT22;4989;48.772;9.154;2023-07-08T23:36:51;28.40;54.70
9901;DHT22;4989;48.772;9.154;2023-07-08T23:41:33;28.30;54.80
9901;DHT22;4989;48.772;9.154;2023-07-08T23:46:36;28.30;55.00
9901;DHT22;4989;48.772;9.154;2023-07-08T23:51:39;28.40;54.90
9901;DHT22;4989;48.772;9.154;2023-07-08T23:56:42;28.20;55.10
